Seremban, Malaysia
Current Conditions -  °F | °C
As of 7:00 AM on Sunday 26 Oct 2014 (Local Time) from WMKK Reporting Station
Broken Clouds Broken Clouds  
Wind Chill: 79°   Ceiling: 28000
Heat Index: 82°   Visibility: 4mi
Dew Point: 75°   Wind: 0mph
Humidity: 89%   Direction: NA
Pressure: 29.85"   Gusts: NA
Location:  2.71°N, 101.95°E
Report Text: WMKK 252300Z 00000KT 6000 FEW017CB SCT140 BKN280 26/24 Q1011 NOSIG
Loading
Personal Weather Stations






























Interactive Weather Map
Tropical Storm Tracking
New forecast layout! Learn more

10-Day Weather Forecast

Advertisements
Track Severe Weather on mobile